This is the latest recevied weather packets stored in our database for station/object VK5KX. If no packets are shown the sender has not sent any weather packets the latest 10 day(s).
| Time | Temp. | Humidity | Pressure | Rain* | Wind** | Luminosity | Snow |
|---|---|---|---|---|---|---|---|
| 1777271431 | 23.33° C | 54% | 1021.9 hPa | 0 mm | - | - | - |
| 1777270541 | 23.33° C | 54% | 1021.9 hPa | 0 mm | - | - | - |
| 1777269629 | 23.33° C | 53% | 1022 hPa | 0 mm | - | - | - |
| 1777268727 | 23.89° C | 52% | 1022 hPa | 0 mm | - | - | - |
| 1777267827 | 23.89° C | 52% | 1022 hPa | 0 mm | - | - | - |
| 1777266924 | 23.33° C | 53% | 1022 hPa | 0 mm | - | - | - |
| 1777266031 | 23.89° C | 53% | 1022.1 hPa | 0 mm | - | - | - |
| 1777265121 | 24.44° C | 51% | 1022.1 hPa | 0 mm | - | - | - |
| 1777264218 | 23.89° C | 50% | 1022.3 hPa | 0 mm | - | - | - |
| 1777263321 | 23.33° C | 52% | 1022.5 hPa | 0 mm | - | - | - |
| 1777262413 | 23.89° C | 51% | 1022.6 hPa | 0 mm | - | - | - |
| 1777261510 | 23.33° C | 52% | 1022.9 hPa | 0 mm | - | - | - |
| 1777260610 | 23.33° C | 51% | 1023.2 hPa | 0 mm | - | - | - |
| 1777259715 | 23.89° C | 51% | 1023.6 hPa | 0 mm | - | - | - |
| 1777258806 | 23.33° C | 52% | 1023.8 hPa | 0 mm | - | - | - |
| 1777257903 | 22.78° C | 53% | 1023.9 hPa | 0 mm | - | - | - |
| 1777257002 | 22.22° C | 54% | 1024.2 hPa | 0 mm | - | - | - |
| 1777256169 | 22.22° C | 53% | 1024.5 hPa | 0 mm | - | - | - |
| 1777256102 | 22.22° C | 53% | 1024.5 hPa | 0 mm | - | - | - |
| 1777255266 | 21.67° C | 55% | 1024.7 hPa | 0 mm | - | - | - |
| 1777254358 | 21.67° C | 57% | 1024.9 hPa | 0 mm | - | - | - |
| 1777253458 | 21.11° C | 57% | 1025.1 hPa | 0 mm | - | - | - |
| 1777252553 | 20.56° C | 60% | 1025.2 hPa | 0 mm | - | - | - |
| 1777251649 | 20.56° C | 61% | 1025.4 hPa | 0 mm | - | - | - |
| 1777250751 | 20° C | 62% | 1025.5 hPa | 0 mm | - | - | - |
* Rain latest hour (hover to see other rain measurements)
** Current wind speed in m/s (hover to see current wind gust speed)